Time;durP1;ratioP1;P1;durP2;ratioP2;P2;SDS_P1;SDS_P2;PMS_P1;PMS_P2;Temp;Humidity;BMP_temperature;BMP_pressure;BME280_temperature;BME280_humidity;BME280_pressure;Samples;Min_cycle;Max_cycle;Signal;HPM_P1;HPM_P2
2022/06/02 00:00:14;;;;;;;16.58;8.43;;;;;;;;;;4947485;28;20115;-92
2022/06/02 00:02:59;;;;;;;16.25;8.27;;;;;;;;;;4950547;28;20038;-91
2022/06/02 00:05:50;;;;;;;16.42;8.55;;;;;;;;;;4949278;28;20034;-91
2022/06/02 00:08:32;;;;;;;16.95;8.18;;;;;;;;;;4952190;28;20037;-92
2022/06/02 00:11:17;;;;;;;20.38;7.90;;;;;;;;;;4951471;28;20061;-92
2022/06/02 00:13:49;;;;;;;14.15;8.40;;;;;;;;;;4962116;28;20398;-89
2022/06/02 00:16:25;;;;;;;13.90;8.77;;;;;;;;;;4941102;28;20041;-92
2022/06/02 00:18:57;;;;;;;15.15;8.02;;;;;;;;;;4978860;28;20042;-90
2022/06/02 00:21:34;;;;;;;14.35;7.75;;;;;;;;;;4948721;28;20057;-91
2022/06/02 00:24:00;;;;;;;17.42;8.43;;;;;;;;;;4961372;28;20035;-92
2022/06/02 00:26:43;;;;;;;16.55;9.02;;;;;;;;;;4945219;28;20074;-91
2022/06/02 00:29:23;;;;;;;13.35;7.72;;;;;;;;;;4946647;28;20029;-90
2022/06/02 00:31:54;;;;;;;16.63;8.57;;;;;;;;;;4960551;28;20042;-92
2022/06/02 00:34:25;;;;;;;18.85;8.60;;;;;;;;;;4947049;28;20031;-92
2022/06/02 00:37:13;;;;;;;20.13;8.43;;;;;;;;;;4959781;28;20502;-91
2022/06/02 00:39:40;;;;;;;15.93;8.13;;;;;;;;;;4964824;28;20049;-92
2022/06/02 00:42:06;;;;;;;15.77;8.70;;;;;;;;;;4966358;28;20073;-91
2022/06/02 00:44:54;;;;;;;13.15;8.23;;;;;;;;;;4965789;28;20038;-92
2022/06/02 00:47:32;;;;;;;14.02;8.27;;;;;;;;;;4965955;28;20498;-92
2022/06/02 00:50:04;;;;;;;14.63;8.18;;;;;;;;;;4964822;28;20093;-92
2022/06/02 00:52:51;;;;;;;14.68;8.20;;;;;;;;;;4969389;28;20328;-92
2022/06/02 00:58:18;;;;;;;14.70;8.57;;;;;;;;;;4978245;28;20037;-91
2022/06/02 01:00:46;;;;;;;18.75;8.48;;;;;;;;;;4968105;28;20074;-91
2022/06/02 01:03:21;;;;;;;18.15;8.65;;;;;;;;;;4980123;28;20030;-92
2022/06/02 01:05:59;;;;;;;19.38;9.20;;;;;;;;;;4961683;28;20117;-93
2022/06/02 01:08:45;;;;;;;20.38;9.82;;;;;;;;;;4981504;28;20026;-92
2022/06/02 01:11:29;;;;;;;18.45;10.25;;;;;;;;;;4965506;28;20027;-91
2022/06/02 01:13:58;;;;;;;18.80;10.02;;;;;;;;;;4963861;28;20038;-89
2022/06/02 01:16:47;;;;;;;17.83;9.38;;;;;;;;;;4978866;28;20046;-91
2022/06/02 01:19:32;;;;;;;17.63;9.77;;;;;;;;;;4948158;28;20043;-92
2022/06/02 01:22:10;;;;;;;16.50;9.32;;;;;;;;;;4981327;28;20034;-91
2022/06/02 01:24:52;;;;;;;22.40;9.43;;;;;;;;;;4966411;28;20037;-90
2022/06/02 01:27:44;;;;;;;23.13;9.70;;;;;;;;;;4970511;28;20040;-91
2022/06/02 01:30:20;;;;;;;20.08;10.40;;;;;;;;;;4954308;28;21177;-92
2022/06/02 01:33:07;;;;;;;16.33;9.63;;;;;;;;;;4976817;28;20113;-91
2022/06/02 01:35:43;;;;;;;16.77;10.18;;;;;;;;;;4970623;28;20793;-92
2022/06/02 01:38:13;;;;;;;21.60;10.30;;;;;;;;;;4966230;28;20034;-89
2022/06/02 01:40:46;;;;;;;19.75;10.32;;;;;;;;;;4968933;28;20052;-91
2022/06/02 01:43:18;;;;;;;24.00;9.85;;;;;;;;;;4987183;28;20106;-91
2022/06/02 01:45:50;;;;;;;20.10;10.23;;;;;;;;;;4963573;28;20035;-93
2022/06/02 01:48:43;;;;;;;19.08;10.35;;;;;;;;;;4970421;28;20042;-91
2022/06/02 01:51:09;;;;;;;16.25;9.10;;;;;;;;;;4967712;28;20118;-91
2022/06/02 01:53:42;;;;;;;20.05;10.18;;;;;;;;;;4967850;28;20129;-91
2022/06/02 01:56:27;;;;;;;18.27;9.52;;;;;;;;;;4965071;28;20061;-91
2022/06/02 01:59:03;;;;;;;18.25;9.18;;;;;;;;;;4963983;28;20031;-90
2022/06/02 02:01:41;;;;;;;16.52;9.73;;;;;;;;;;4980101;28;20494;-91
2022/06/02 02:04:27;;;;;;;15.73;9.70;;;;;;;;;;4968148;28;20045;-91
2022/06/02 02:06:53;;;;;;;21.38;9.18;;;;;;;;;;4963260;28;20164;-91
2022/06/02 02:09:19;;;;;;;18.95;9.57;;;;;;;;;;4967162;28;20566;-90
2022/06/02 02:11:55;;;;;;;17.38;8.95;;;;;;;;;;4967805;28;20040;-92
2022/06/02 02:14:27;;;;;;;20.27;9.75;;;;;;;;;;4962333;28;20034;-92
2022/06/02 02:17:06;;;;;;;16.40;8.95;;;;;;;;;;4962355;28;20036;-91
2022/06/02 02:19:51;;;;;;;22.40;9.35;;;;;;;;;;4965126;28;20069;-90
2022/06/02 02:22:33;;;;;;;28.83;9.52;;;;;;;;;;4978430;28;20045;-91
2022/06/02 02:25:02;;;;;;;17.30;8.98;;;;;;;;;;4959426;28;21762;-93
2022/06/02 02:28:02;;;;;;;18.23;9.38;;;;;;;;;;4965047;28;20421;-92
2022/06/02 02:30:27;;;;;;;16.83;9.27;;;;;;;;;;4985135;28;20030;-93
2022/06/02 02:32:57;;;;;;;19.40;9.73;;;;;;;;;;4962001;28;20039;-91
2022/06/02 02:35:42;;;;;;;18.08;9.80;;;;;;;;;;4966144;28;20061;-92
2022/06/02 02:38:14;;;;;;;18.38;8.85;;;;;;;;;;4964348;28;20168;-92
2022/06/02 02:40:46;;;;;;;17.67;8.90;;;;;;;;;;4962429;28;20328;-92
2022/06/02 02:43:20;;;;;;;15.95;8.68;;;;;;;;;;4962758;28;20045;-92
2022/06/02 02:46:05;;;;;;;19.77;8.32;;;;;;;;;;4963836;28;20049;-92
2022/06/02 02:48:43;;;;;;;21.65;8.50;;;;;;;;;;4963940;28;20545;-91
2022/06/02 02:51:30;;;;;;;15.88;8.73;;;;;;;;;;4980878;28;20019;-91
2022/06/02 02:54:01;;;;;;;19.02;8.30;;;;;;;;;;4979813;28;20050;-91
2022/06/02 02:56:34;;;;;;;18.75;8.85;;;;;;;;;;4978720;28;20494;-92
2022/06/02 02:59:04;;;;;;;14.07;8.23;;;;;;;;;;4978347;28;20046;-92
2022/06/02 03:01:49;;;;;;;12.63;6.93;;;;;;;;;;4965581;28;20031;-92
2022/06/02 03:04:34;;;;;;;14.68;7.57;;;;;;;;;;4967366;28;20038;-92
2022/06/02 03:07:00;;;;;;;13.50;7.85;;;;;;;;;;4966333;28;20057;-92
2022/06/02 03:09:40;;;;;;;14.35;8.25;;;;;;;;;;4963319;28;20030;-93
2022/06/02 03:12:30;;;;;;;13.95;7.80;;;;;;;;;;4959734;28;20486;-92
2022/06/02 03:15:23;;;;;;;19.98;7.55;;;;;;;;;;4968689;28;20117;-91
2022/06/02 03:17:52;;;;;;;13.77;7.45;;;;;;;;;;4965567;28;20109;-90
2022/06/02 03:20:40;;;;;;;12.35;7.28;;;;;;;;;;4965388;28;20680;-91
2022/06/02 03:23:07;;;;;;;17.10;7.93;;;;;;;;;;4962658;28;20124;-90
2022/06/02 03:25:39;;;;;;;12.02;6.60;;;;;;;;;;4977116;28;20030;-92
2022/06/02 03:28:08;;;;;;;11.23;6.93;;;;;;;;;;4978825;28;20979;-93
2022/06/02 03:30:48;;;;;;;12.82;7.32;;;;;;;;;;4967501;28;20030;-93
2022/06/02 03:33:18;;;;;;;16.48;7.82;;;;;;;;;;4970626;28;20472;-91
2022/06/02 03:35:51;;;;;;;17.60;6.57;;;;;;;;;;4981595;28;20034;-93
2022/06/02 03:38:20;;;;;;;14.52;7.50;;;;;;;;;;4981913;28;20128;-92
2022/06/02 03:40:55;;;;;;;14.00;7.45;;;;;;;;;;4977538;28;20053;-92
2022/06/02 03:43:40;;;;;;;13.18;7.40;;;;;;;;;;4965660;28;20421;-93
2022/06/02 03:46:12;;;;;;;16.35;7.53;;;;;;;;;;4962911;28;21330;-92
2022/06/02 03:48:53;;;;;;;16.52;7.55;;;;;;;;;;4966226;28;20046;-90
2022/06/02 03:51:20;;;;;;;13.38;6.50;;;;;;;;;;4963195;28;20039;-91
2022/06/02 03:53:59;;;;;;;11.88;7.30;;;;;;;;;;4964459;28;20602;-94
2022/06/02 03:56:44;;;;;;;14.10;7.20;;;;;;;;;;4975683;28;20038;-93
2022/06/02 03:59:29;;;;;;;13.55;6.68;;;;;;;;;;4972785;28;20117;-92
2022/06/02 04:02:15;;;;;;;11.48;7.15;;;;;;;;;;4977411;28;20116;-92
2022/06/02 04:04:48;;;;;;;11.70;6.53;;;;;;;;;;4966783;28;20504;-93
2022/06/02 04:07:32;;;;;;;12.90;7.28;;;;;;;;;;4981440;28;20133;-92
2022/06/02 04:10:23;;;;;;;13.43;6.78;;;;;;;;;;4976921;28;20041;-92
2022/06/02 04:15:55;;;;;;;12.18;6.13;;;;;;;;;;4981889;28;20045;-91
2022/06/02 04:18:21;;;;;;;11.50;6.70;;;;;;;;;;4966881;28;20034;-93
2022/06/02 04:21:06;;;;;;;12.65;6.13;;;;;;;;;;4965972;28;20061;-92
2022/06/02 04:23:38;;;;;;;11.63;5.63;;;;;;;;;;4963933;28;20116;-91
2022/06/02 04:26:07;;;;;;;12.10;6.28;;;;;;;;;;4981135;28;20038;-92
2022/06/02 04:28:46;;;;;;;9.25;6.03;;;;;;;;;;4982878;28;20039;-92
2022/06/02 04:31:39;;;;;;;8.80;5.40;;;;;;;;;;4971442;28;20045;-92
2022/06/02 04:34:24;;;;;;;9.88;4.95;;;;;;;;;;4948090;28;20129;-92
2022/06/02 04:36:55;;;;;;;8.43;5.13;;;;;;;;;;4998984;28;20038;-89
2022/06/02 04:39:40;;;;;;;10.88;5.13;;;;;;;;;;4963418;28;20038;-92
2022/06/02 04:42:27;;;;;;;11.98;5.63;;;;;;;;;;4971154;28;20432;-91
2022/06/02 04:45:10;;;;;;;7.05;4.85;;;;;;;;;;4965731;28;20047;-92
2022/06/02 04:47:49;;;;;;;7.68;5.10;;;;;;;;;;4961720;28;20038;-92
2022/06/02 04:50:36;;;;;;;8.60;4.95;;;;;;;;;;4967113;28;20046;-92
2022/06/02 04:53:09;;;;;;;6.07;4.40;;;;;;;;;;4965679;28;20489;-92
2022/06/02 04:55:35;;;;;;;9.63;4.38;;;;;;;;;;4980613;28;20130;-92
2022/06/02 04:58:20;;;;;;;6.45;4.38;;;;;;;;;;4963681;28;20480;-93
2022/06/02 05:01:05;;;;;;;5.35;3.83;;;;;;;;;;4959759;28;20022;-93
2022/06/02 05:03:50;;;;;;;5.55;3.50;;;;;;;;;;4968572;28;20030;-93
2022/06/02 05:06:19;;;;;;;8.63;3.85;;;;;;;;;;4982560;28;20034;-94
2022/06/02 05:08:54;;;;;;;5.55;3.60;;;;;;;;;;4962185;28;20049;-93
2022/06/02 05:11:39;;;;;;;6.37;3.33;;;;;;;;;;4977965;28;20038;-93
2022/06/02 05:14:08;;;;;;;5.95;3.25;;;;;;;;;;4974333;28;20030;-93
2022/06/02 05:16:52;;;;;;;5.32;3.40;;;;;;;;;;4964113;28;20027;-93
2022/06/02 05:19:24;;;;;;;6.65;3.13;;;;;;;;;;4980471;28;20482;-89
2022/06/02 05:21:53;;;;;;;5.25;3.00;;;;;;;;;;4980304;28;20426;-93
2022/06/02 05:24:38;;;;;;;3.97;2.80;;;;;;;;;;4973449;28;20057;-93
2022/06/02 05:27:19;;;;;;;9.48;3.30;;;;;;;;;;4966261;28;20041;-93
2022/06/02 05:30:12;;;;;;;3.65;2.92;;;;;;;;;;4965728;28;20344;-93
2022/06/02 05:33:08;;;;;;;5.35;3.33;;;;;;;;;;4976297;28;20446;-91
2022/06/02 05:35:53;;;;;;;8.57;2.92;;;;;;;;;;4943165;28;20041;-93
2022/06/02 05:38:28;;;;;;;5.35;3.00;;;;;;;;;;4997699;28;20026;-94
2022/06/02 05:41:13;;;;;;;3.53;2.78;;;;;;;;;;4969680;28;20501;-96
2022/06/02 05:44:01;;;;;;;3.97;2.75;;;;;;;;;;4971757;28;20022;-91
2022/06/02 05:46:34;;;;;;;6.15;3.10;;;;;;;;;;4953346;28;20050;-91
2022/06/02 05:49:10;;;;;;;4.72;3.00;;;;;;;;;;4973102;28;20100;-94
2022/06/02 05:51:41;;;;;;;4.13;2.73;;;;;;;;;;4959982;28;20200;-92
2022/06/02 05:54:26;;;;;;;5.38;2.90;;;;;;;;;;4946971;28;20118;-93
2022/06/02 05:57:04;;;;;;;9.10;3.65;;;;;;;;;;4956681;28;20037;-93
2022/06/02 05:59:49;;;;;;;4.10;2.20;;;;;;;;;;4954501;28;20504;-93
2022/06/02 06:02:15;;;;;;;6.47;2.70;;;;;;;;;;4967380;28;20153;-93
2022/06/02 06:04:48;;;;;;;5.82;2.40;;;;;;;;;;4952903;28;20518;-94
2022/06/02 06:07:14;;;;;;;6.88;2.60;;;;;;;;;;4951820;28;20031;-92
2022/06/02 06:09:49;;;;;;;4.60;2.90;;;;;;;;;;4970182;28;20474;-92
2022/06/02 06:12:34;;;;;;;7.80;2.13;;;;;;;;;;4965514;28;20058;-93
2022/06/02 06:15:08;;;;;;;4.07;2.30;;;;;;;;;;4978856;28;20114;-94
2022/06/02 06:18:04;;;;;;;6.15;2.08;;;;;;;;;;4972642;28;20041;-95
2022/06/02 06:20:52;;;;;;;4.82;1.73;;;;;;;;;;4956033;28;20405;-94
2022/06/02 06:23:24;;;;;;;5.82;2.22;;;;;;;;;;4968666;28;20125;-92
2022/06/02 06:25:53;;;;;;;3.28;1.92;;;;;;;;;;4966571;28;20034;-94
2022/06/02 06:28:23;;;;;;;3.97;1.75;;;;;;;;;;4965253;28;20038;-95
2022/06/02 06:30:52;;;;;;;3.03;2.03;;;;;;;;;;4964412;28;20022;-94
2022/06/02 06:33:38;;;;;;;8.77;2.38;;;;;;;;;;4948526;28;20499;-95
2022/06/02 06:36:38;;;;;;;5.35;2.40;;;;;;;;;;4972624;28;20035;-93
2022/06/02 06:39:23;;;;;;;5.10;2.13;;;;;;;;;;4915953;28;20057;-92
2022/06/02 06:41:52;;;;;;;5.07;2.38;;;;;;;;;;4946520;28;20038;-93
2022/06/02 06:44:25;;;;;;;2.58;1.70;;;;;;;;;;4965065;28;20245;-92
2022/06/02 06:47:01;;;;;;;2.72;1.52;;;;;;;;;;4947839;28;20043;-92
2022/06/02 06:49:45;;;;;;;6.15;2.25;;;;;;;;;;4955712;28;20422;-91
2022/06/02 06:52:35;;;;;;;4.93;1.85;;;;;;;;;;4959118;28;20040;-93
2022/06/02 06:55:04;;;;;;;4.68;2.30;;;;;;;;;;4911529;28;20499;-93
2022/06/02 06:57:49;;;;;;;5.82;2.15;;;;;;;;;;4955910;28;20049;-91
2022/06/02 07:00:24;;;;;;;4.90;2.00;;;;;;;;;;4945475;28;20039;-92
2022/06/02 07:03:04;;;;;;;7.60;2.00;;;;;;;;;;4951456;28;20058;-92
2022/06/02 07:05:37;;;;;;;6.18;1.85;;;;;;;;;;4948757;28;20379;-94
2022/06/02 07:08:12;;;;;;;3.53;1.63;;;;;;;;;;4949928;28;20086;-91
2022/06/02 07:10:57;;;;;;;3.63;1.65;;;;;;;;;;4959640;28;20487;-94
2022/06/02 07:13:30;;;;;;;3.63;1.40;;;;;;;;;;4963304;28;20487;-92
2022/06/02 07:16:07;;;;;;;4.22;1.90;;;;;;;;;;4955590;28;20035;-92
2022/06/02 07:18:52;;;;;;;3.00;1.70;;;;;;;;;;4970253;28;20969;-92
2022/06/02 07:21:23;;;;;;;3.17;1.63;;;;;;;;;;4944482;28;20041;-93
2022/06/02 07:23:56;;;;;;;1.73;1.63;;;;;;;;;;4939225;28;20045;-93
2022/06/02 07:26:41;;;;;;;5.45;1.90;;;;;;;;;;4950000;28;20045;-93
2022/06/02 07:29:26;;;;;;;3.63;1.90;;;;;;;;;;4948308;28;20565;-91
2022/06/02 07:31:58;;;;;;;3.38;1.80;;;;;;;;;;4963802;28;20122;-92
2022/06/02 07:34:41;;;;;;;2.50;1.48;;;;;;;;;;4962071;28;20437;-92
2022/06/02 07:37:16;;;;;;;6.35;1.88;;;;;;;;;;4959811;28;20031;-93
2022/06/02 07:40:02;;;;;;;5.25;1.60;;;;;;;;;;4968478;28;20045;-91
2022/06/02 07:42:44;;;;;;;2.60;1.40;;;;;;;;;;4937690;28;20133;-92
2022/06/02 07:45:24;;;;;;;7.03;1.75;;;;;;;;;;4957696;28;20537;-93
2022/06/02 07:47:59;;;;;;;2.33;1.40;;;;;;;;;;4961518;28;20035;-93
2022/06/02 07:50:34;;;;;;;7.32;1.55;;;;;;;;;;4962293;28;20031;-92
2022/06/02 07:53:09;;;;;;;5.40;1.73;;;;;;;;;;4981131;28;20131;-90
2022/06/02 07:55:38;;;;;;;3.03;1.40;;;;;;;;;;4970487;28;20177;-90
2022/06/02 07:58:20;;;;;;;3.13;1.50;;;;;;;;;;4969818;28;23591;-92
2022/06/02 08:00:51;;;;;;;4.85;1.73;;;;;;;;;;4968432;28;20018;-90
2022/06/02 08:03:37;;;;;;;4.10;1.70;;;;;;;;;;4976133;28;20039;-93
2022/06/02 08:06:10;;;;;;;1.88;1.35;;;;;;;;;;4991395;28;20038;-92
2022/06/02 08:08:41;;;;;;;2.08;1.60;;;;;;;;;;4979130;28;20030;-92
2022/06/02 08:11:16;;;;;;;1.25;1.15;;;;;;;;;;4970692;28;20459;-91
2022/06/02 08:13:52;;;;;;;3.95;1.83;;;;;;;;;;4969905;28;20544;-93
2022/06/02 08:16:29;;;;;;;4.65;1.60;;;;;;;;;;4963241;28;20061;-93
2022/06/02 08:19:16;;;;;;;10.00;1.58;;;;;;;;;;4969713;28;20038;-94
2022/06/02 08:21:45;;;;;;;1.67;1.10;;;;;;;;;;4980406;28;20046;-92
2022/06/02 08:24:11;;;;;;;5.10;1.70;;;;;;;;;;4967089;28;20034;-93
2022/06/02 08:26:48;;;;;;;6.20;1.80;;;;;;;;;;4971471;28;20062;-92
2022/06/02 08:29:22;;;;;;;2.30;1.63;;;;;;;;;;4977086;28;20283;-93
2022/06/02 08:31:48;;;;;;;3.08;1.45;;;;;;;;;;4971396;28;20035;-92
2022/06/02 08:34:21;;;;;;;5.22;2.28;;;;;;;;;;4966430;28;20038;-93
2022/06/02 08:36:50;;;;;;;6.03;1.42;;;;;;;;;;4973017;28;20024;-92
2022/06/02 08:39:28;;;;;;;4.65;1.67;;;;;;;;;;4971992;28;20035;-92
2022/06/02 08:41:57;;;;;;;4.22;1.85;;;;;;;;;;4968889;28;20099;-92
2022/06/02 08:44:45;;;;;;;6.57;1.83;;;;;;;;;;4968558;28;20042;-91
2022/06/02 08:47:14;;;;;;;1.98;1.60;;;;;;;;;;4982302;28;20426;-91
2022/06/02 08:49:56;;;;;;;50.92;6.22;;;;;;;;;;4982221;28;20031;-90
2022/06/02 08:52:31;;;;;;;2.65;1.75;;;;;;;;;;4973093;28;20533;-93
2022/06/02 08:55:16;;;;;;;4.90;2.65;;;;;;;;;;4967912;28;20396;-93
2022/06/02 08:58:02;;;;;;;6.65;1.90;;;;;;;;;;4970200;28;20498;-92
2022/06/02 09:00:37;;;;;;;6.80;1.73;;;;;;;;;;4972435;28;20044;-91
2022/06/02 09:03:15;;;;;;;5.65;1.90;;;;;;;;;;4970065;28;20044;-91
2022/06/02 09:05:48;;;;;;;3.45;1.65;;;;;;;;;;4962720;28;20050;-92
2022/06/02 09:08:27;;;;;;;9.50;1.90;;;;;;;;;;4964739;28;20652;-92
2022/06/02 09:11:05;;;;;;;2.63;1.90;;;;;;;;;;4972518;28;20069;-93
2022/06/02 09:13:45;;;;;;;16.08;4.47;;;;;;;;;;4964903;28;20271;-92
2022/06/02 09:16:21;;;;;;;4.65;2.05;;;;;;;;;;4980605;28;20034;-92
2022/06/02 09:18:50;;;;;;;2.63;1.30;;;;;;;;;;4982996;28;20034;-92
2022/06/02 09:21:19;;;;;;;3.63;1.60;;;;;;;;;;4970034;28;20100;-93
2022/06/02 09:23:50;;;;;;;4.55;1.88;;;;;;;;;;4972925;28;20027;-91
2022/06/02 09:26:22;;;;;;;4.22;1.70;;;;;;;;;;4968108;28;20536;-92
2022/06/02 09:28:57;;;;;;;3.78;1.73;;;;;;;;;;4969477;28;20117;-92
2022/06/02 09:31:24;;;;;;;2.80;1.70;;;;;;;;;;4970363;28;20438;-93
2022/06/02 09:34:04;;;;;;;5.13;1.40;;;;;;;;;;4988904;28;20084;-93
2022/06/02 09:36:36;;;;;;;5.82;1.45;;;;;;;;;;4971104;28;20027;-93
2022/06/02 09:39:09;;;;;;;2.25;1.30;;;;;;;;;;4969086;28;20098;-92
2022/06/02 09:41:51;;;;;;;3.00;1.40;;;;;;;;;;4986830;28;20035;-92
2022/06/02 09:44:27;;;;;;;4.40;2.00;;;;;;;;;;4964641;28;20042;-92
2022/06/02 09:46:58;;;;;;;5.50;1.58;;;;;;;;;;4980218;28;20397;-92
2022/06/02 09:49:42;;;;;;;5.78;1.58;;;;;;;;;;4972484;28;20038;-93
2022/06/02 09:52:27;;;;;;;4.57;1.65;;;;;;;;;;4982010;28;20193;-93
2022/06/02 09:55:08;;;;;;;3.15;1.33;;;;;;;;;;4968965;28;20034;-92
2022/06/02 09:57:55;;;;;;;2.10;1.35;;;;;;;;;;4970201;28;20177;-92
2022/06/02 10:00:22;;;;;;;6.00;1.67;;;;;;;;;;4966735;28;20381;-91
2022/06/02 10:02:57;;;;;;;5.80;1.70;;;;;;;;;;4968426;28;20501;-93
2022/06/02 10:05:33;;;;;;;4.05;1.67;;;;;;;;;;4982996;28;20038;-92
2022/06/02 10:07:59;;;;;;;2.05;1.45;;;;;;;;;;4968739;28;20387;-94
2022/06/02 10:10:48;;;;;;;4.30;1.40;;;;;;;;;;4989477;28;20101;-91
2022/06/02 10:13:31;;;;;;;5.88;1.58;;;;;;;;;;4957856;28;20176;-92
2022/06/02 10:16:16;;;;;;;3.17;1.58;;;;;;;;;;4985613;28;20033;-93
2022/06/02 10:18:56;;;;;;;1.90;1.60;;;;;;;;;;4983407;28;20055;-93
2022/06/02 10:21:25;;;;;;;3.65;1.67;;;;;;;;;;4982547;28;20023;-92
2022/06/02 10:23:54;;;;;;;5.07;1.52;;;;;;;;;;4968144;28;20048;-93
2022/06/02 10:26:23;;;;;;;6.07;1.60;;;;;;;;;;4963415;28;20739;-93
2022/06/02 10:29:08;;;;;;;4.45;1.50;;;;;;;;;;4972461;28;20037;-92
2022/06/02 10:31:34;;;;;;;5.18;1.60;;;;;;;;;;4961323;28;20038;-90
2022/06/02 10:34:10;;;;;;;3.85;2.03;;;;;;;;;;4968476;28;20027;-93
2022/06/02 10:36:54;;;;;;;1.90;1.60;;;;;;;;;;4980680;28;20490;-93
2022/06/02 10:39:21;;;;;;;1.70;1.60;;;;;;;;;;4975329;28;20444;-93
2022/06/02 10:41:59;;;;;;;1.55;1.30;;;;;;;;;;4971827;28;20445;-94
2022/06/02 10:44:25;;;;;;;6.22;2.00;;;;;;;;;;4961768;28;20023;-90
2022/06/02 10:47:01;;;;;;;1.83;1.60;;;;;;;;;;4982019;28;20050;-93
2022/06/02 10:49:27;;;;;;;;;;;;;;;;;;4965265;28;20041;-90
2022/06/02 10:52:12;;;;;;;3.15;1.40;;;;;;;;;;4980196;28;19928;-92
2022/06/02 10:54:38;;;;;;;1.80;1.40;;;;;;;;;;4964308;28;20824;-92
2022/06/02 10:57:25;;;;;;;5.50;1.75;;;;;;;;;;4965979;28;20035;-93
2022/06/02 11:00:09;;;;;;;4.18;2.10;;;;;;;;;;4982369;28;20212;-91
2022/06/02 11:02:43;;;;;;;3.45;1.55;;;;;;;;;;4975933;28;20378;-91
2022/06/02 11:05:41;;;;;;;2.28;1.70;;;;;;;;;;4964291;28;20038;-92
2022/06/02 11:08:20;;;;;;;4.75;3.00;;;;;;;;;;4968608;28;20565;-92
2022/06/02 11:10:58;;;;;;;13.02;2.05;;;;;;;;;;4966200;28;20025;-92
2022/06/02 11:13:43;;;;;;;6.22;1.80;;;;;;;;;;4973293;28;20421;-91
2022/06/02 11:16:34;;;;;;;2.42;1.90;;;;;;;;;;4979433;28;20096;-92
2022/06/02 11:19:26;;;;;;;3.72;1.70;;;;;;;;;;4967298;28;20042;-91
2022/06/02 11:21:59;;;;;;;2.15;1.80;;;;;;;;;;4956047;28;20050;-93
2022/06/02 11:24:25;;;;;;;4.90;2.22;;;;;;;;;;4967622;28;20031;-91
2022/06/02 11:27:10;;;;;;;3.90;1.85;;;;;;;;;;4973013;28;20042;-91
2022/06/02 11:30:00;;;;;;;2.83;1.40;;;;;;;;;;4975024;28;20828;-93
2022/06/02 11:32:44;;;;;;;4.28;1.85;;;;;;;;;;4955714;28;20034;-92
2022/06/02 11:35:30;;;;;;;4.90;2.13;;;;;;;;;;4968717;28;20213;-91
2022/06/02 11:37:56;;;;;;;2.58;2.38;;;;;;;;;;4963193;28;20126;-92
2022/06/02 11:40:46;;;;;;;3.85;1.65;;;;;;;;;;4978834;28;20983;-92
2022/06/02 11:43:12;;;;;;;3.58;1.77;;;;;;;;;;4917077;28;20134;-90
2022/06/02 11:46:00;;;;;;;3.13;1.55;;;;;;;;;;4948415;28;20039;-92
2022/06/02 11:48:41;;;;;;;3.80;1.77;;;;;;;;;;4950566;28;20556;-93
2022/06/02 11:51:10;;;;;;;3.28;1.50;;;;;;;;;;4946551;28;20073;-92
2022/06/02 11:53:57;;;;;;;4.30;1.90;;;;;;;;;;4954000;28;20411;-90
2022/06/02 11:56:42;;;;;;;4.53;1.90;;;;;;;;;;4930643;28;20104;-91
2022/06/02 11:59:10;;;;;;;2.35;1.50;;;;;;;;;;4968692;28;20498;-91
2022/06/02 12:01:40;;;;;;;4.13;1.40;;;;;;;;;;4948295;28;20490;-92
2022/06/02 12:04:36;;;;;;;2.55;1.55;;;;;;;;;;4950959;28;20147;-93
2022/06/02 12:07:02;;;;;;;;;;;;;;;;;;4946113;28;20439;-92
2022/06/02 12:09:32;;;;;;;;;;;;;;;;;;4946440;28;20356;-91
2022/06/02 12:11:59;;;;;;;5.25;1.30;;;;;;;;;;4959711;28;20581;-91
2022/06/02 12:14:28;;;;;;;3.47;1.40;;;;;;;;;;4943740;28;20506;-91
2022/06/02 12:17:11;;;;;;;6.80;1.55;;;;;;;;;;4947006;28;20030;-90
2022/06/02 12:19:56;;;;;;;6.32;1.70;;;;;;;;;;4962786;28;20023;-92
2022/06/02 12:22:36;;;;;;;3.45;1.67;;;;;;;;;;4949207;28;20383;-91
2022/06/02 12:25:22;;;;;;;3.10;1.90;;;;;;;;;;4944872;28;20466;-92
2022/06/02 12:27:48;;;;;;;2.03;1.42;;;;;;;;;;4948331;28;20030;-92
2022/06/02 12:30:17;;;;;;;2.58;1.35;;;;;;;;;;4945052;28;20053;-91
2022/06/02 12:32:46;;;;;;;1.83;1.67;;;;;;;;;;4963751;28;20622;-91
2022/06/02 12:35:13;;;;;;;3.03;1.60;;;;;;;;;;4952788;28;20311;-91
2022/06/02 12:38:00;;;;;;;8.48;1.60;;;;;;;;;;4945738;28;20113;-92
2022/06/02 12:40:29;;;;;;;2.15;1.20;;;;;;;;;;4950660;28;20615;-92
2022/06/02 12:43:01;;;;;;;1.42;1.27;;;;;;;;;;4964358;28;20026;-92
2022/06/02 12:45:30;;;;;;;2.20;1.20;;;;;;;;;;4967092;28;20042;-92
2022/06/02 12:48:00;;;;;;;3.50;1.70;;;;;;;;;;4971495;28;20045;-91
2022/06/02 12:50:32;;;;;;;6.15;2.13;;;;;;;;;;4968620;28;20410;-93
2022/06/02 12:53:04;;;;;;;2.70;1.60;;;;;;;;;;4983597;28;20266;-94
2022/06/02 12:55:49;;;;;;;1.55;1.13;;;;;;;;;;4967356;28;20514;-92
2022/06/02 12:58:39;;;;;;;2.55;1.52;;;;;;;;;;4969046;28;20034;-90
2022/06/02 13:01:19;;;;;;;1.80;1.38;;;;;;;;;;4960854;28;20578;-92
2022/06/02 13:03:59;;;;;;;2.28;1.42;;;;;;;;;;4979695;28;20403;-92
2022/06/02 13:06:44;;;;;;;1.52;1.27;;;;;;;;;;4962828;28;20029;-91
2022/06/02 13:09:29;;;;;;;3.53;1.50;;;;;;;;;;4972133;28;20061;-93
2022/06/02 13:12:04;;;;;;;6.35;1.40;;;;;;;;;;4967144;28;20027;-91
2022/06/02 13:14:31;;;;;;;;;;;;;;;;;;4955691;28;20079;-91
2022/06/02 13:16:57;;;;;;;2.63;1.45;;;;;;;;;;4964358;28;19910;-92
2022/06/02 13:19:32;;;;;;;3.45;1.50;;;;;;;;;;4967217;28;20573;-91
2022/06/02 13:22:05;;;;;;;2.42;1.20;;;;;;;;;;4962074;28;20065;-90
2022/06/02 13:24:50;;;;;;;1.95;1.13;;;;;;;;;;4989959;28;20106;-91
2022/06/02 13:27:45;;;;;;;1.50;1.17;;;;;;;;;;4971794;28;20041;-92
2022/06/02 13:30:21;;;;;;;4.23;1.50;;;;;;;;;;4960626;28;20055;-91
2022/06/02 13:32:59;;;;;;;1.92;1.35;;;;;;;;;;4971189;28;20289;-92
2022/06/02 13:35:37;;;;;;;2.58;1.40;;;;;;;;;;4969111;28;20117;-92
2022/06/02 13:38:14;;;;;;;2.33;1.27;;;;;;;;;;4979705;28;20546;-92
2022/06/02 13:40:56;;;;;;;2.22;1.30;;;;;;;;;;4969541;28;20041;-92
2022/06/02 13:43:41;;;;;;;3.17;1.15;;;;;;;;;;4965889;28;20030;-91
2022/06/02 13:46:11;;;;;;;1.33;1.10;;;;;;;;;;4958227;28;20437;-91
2022/06/02 13:48:46;;;;;;;1.55;1.13;;;;;;;;;;4966853;28;20058;-92
2022/06/02 13:51:31;;;;;;;4.88;1.40;;;;;;;;;;4963234;28;20180;-91
2022/06/02 13:59:36;;;;;;;3.22;1.20;;;;;;;;;;4980334;28;20057;-92
2022/06/02 14:02:21;;;;;;;1.92;1.30;;;;;;;;;;4964882;28;20042;-91
2022/06/02 14:04:50;;;;;;;1.55;1.00;;;;;;;;;;4965463;28;20060;-91
2022/06/02 14:07:42;;;;;;;4.20;1.58;;;;;;;;;;4967295;28;20093;-92
2022/06/02 14:10:25;;;;;;;2.75;1.70;;;;;;;;;;4962793;28;20030;-92
2022/06/02 14:13:02;;;;;;;4.40;1.42;;;;;;;;;;4969222;28;20069;-92
2022/06/02 14:15:31;;;;;;;2.80;1.15;;;;;;;;;;4970931;28;20525;-92
2022/06/02 14:18:07;;;;;;;4.28;1.45;;;;;;;;;;4970579;28;20099;-93
2022/06/02 14:20:40;;;;;;;4.03;1.77;;;;;;;;;;4971217;28;20038;-93
2022/06/02 14:23:24;;;;;;;3.22;1.52;;;;;;;;;;4969484;28;20023;-92
2022/06/02 14:26:09;;;;;;;2.53;1.70;;;;;;;;;;4972449;28;20026;-92
2022/06/02 14:28:47;;;;;;;7.50;1.48;;;;;;;;;;4964831;28;20038;-92
2022/06/02 14:31:19;;;;;;;5.18;1.50;;;;;;;;;;4971344;28;20034;-94
2022/06/02 14:33:48;;;;;;;6.25;1.75;;;;;;;;;;4967493;28;20030;-91
2022/06/02 14:36:18;;;;;;;3.20;1.55;;;;;;;;;;4971317;28;20529;-92
2022/06/02 14:38:55;;;;;;;2.65;1.42;;;;;;;;;;4967328;28;20018;-93
2022/06/02 14:41:29;;;;;;;9.40;1.55;;;;;;;;;;4955277;28;20059;-92
2022/06/02 14:44:11;;;;;;;3.63;1.45;;;;;;;;;;4947101;28;20492;-92
2022/06/02 14:46:55;;;;;;;2.75;1.20;;;;;;;;;;4947091;28;20137;-92
2022/06/02 14:49:25;;;;;;;3.92;1.42;;;;;;;;;;4951952;28;20113;-91
2022/06/02 14:52:14;;;;;;;2.53;1.50;;;;;;;;;;4949102;28;20031;-93
2022/06/02 14:54:59;;;;;;;5.07;1.23;;;;;;;;;;4919444;28;20502;-92
2022/06/02 14:57:28;;;;;;;5.23;1.27;;;;;;;;;;4971557;28;20027;-92
2022/06/02 15:00:13;;;;;;;1.70;1.20;;;;;;;;;;4948983;28;20046;-92
2022/06/02 15:03:09;;;;;;;2.07;1.30;;;;;;;;;;4948436;28;20130;-93
2022/06/02 15:06:04;;;;;;;3.97;1.33;;;;;;;;;;4935779;28;20043;-93
2022/06/02 15:08:43;;;;;;;1.10;0.90;;;;;;;;;;4911051;28;20048;-92
2022/06/02 15:11:09;;;;;;;2.78;0.93;;;;;;;;;;4955055;28;20034;-91
2022/06/02 15:13:51;;;;;;;4.55;1.35;;;;;;;;;;4943534;28;20046;-92
2022/06/02 15:16:17;;;;;;;4.43;1.13;;;;;;;;;;4944640;28;20043;-92
2022/06/02 15:19:07;;;;;;;1.80;1.00;;;;;;;;;;4947391;28;20033;-91
2022/06/02 15:21:51;;;;;;;1.73;1.33;;;;;;;;;;4932674;28;20058;-92
2022/06/02 15:24:30;;;;;;;5.20;1.20;;;;;;;;;;4968385;28;20341;-91
2022/06/02 15:27:15;;;;;;;1.05;0.85;;;;;;;;;;4944312;28;20038;-92
2022/06/02 15:30:01;;;;;;;4.53;1.30;;;;;;;;;;4969070;28;20034;-93
2022/06/02 15:32:46;;;;;;;2.15;1.02;;;;;;;;;;4919846;28;20493;-92
2022/06/02 15:35:26;;;;;;;1.23;0.90;;;;;;;;;;4948664;28;20082;-91
2022/06/02 15:38:11;;;;;;;8.50;1.85;;;;;;;;;;4951877;28;20061;-91
2022/06/02 15:40:37;;;;;;;1.70;1.00;;;;;;;;;;4949867;28;20049;-91
2022/06/02 15:43:22;;;;;;;0.80;0.80;;;;;;;;;;4943906;28;20106;-92
2022/06/02 15:46:00;;;;;;;11.37;1.53;;;;;;;;;;4961667;28;20035;-91
2022/06/02 15:48:26;;;;;;;28.58;6.78;;;;;;;;;;4961941;28;20043;-92
2022/06/02 15:51:11;;;;;;;168.32;63.80;;;;;;;;;;4959504;28;20276;-92
2022/06/02 15:53:43;;;;;;;71.23;34.77;;;;;;;;;;4947925;28;20058;-91